Crest Park, CA (92326)

8:53 AM PDT on September 30, 2014 (GMT -0700)
Rim of the World High School | Change Station
CLOSE
Current Station
Personal Weather Station
Location: Lake Arrowhead, CA
Elevation: 5768 ft
Nearby Weather Stations

Elev 5768 ft 34.23 °N, 117.21 °W | Updated 18 minutes ago

Clear
Clear
61.5 °F
Feels Like 61.5 °F
N
4.7
Wind Variable Wind from SW

Today
High -- | Low -- °F
--% Chance of Precip.
Yesterday
High -- | Low -- °F
Precip. -- in
6:42 AM 6:34 PM
Waxing Crescent, 37% visible
Pressure 30.15 in
Visibility 10.0 miles
Clouds Clear
Dew Point 41 °F
Humidity 47%
Rainfall -9999.00 in
Snow Depth 1 in , 1 in , 0 in
UV 2 out of 12
Pollen 5.30 out of 12
Ozone Good
PM2.5 Good
Flu Activity Not available.
METAR KL35 301535Z AUTO 00000KT 10SM CLR 08/M03 A3015 RMK AO2

More Conditions Fewer Conditions

Pressure 30.15 in
Visibility 10.0 miles
Clouds Clear
Dew Point 41 °F
Humidity 47%
Rainfall -9999.00 in
Snow Depth 1 in , 1 in , 0 in
UV 2 out of 12
Pollen 5.30 out of 12
Ozone Good
PM2.5 Good
Flu Activity Not available.
METAR KL35 301535Z AUTO 00000KT 10SM CLR 08/M03 A3015 RMK AO2

More Conditions Fewer Conditions

10-Day Weather Forecast

Almanac

Astronomy

Sep. 30, 2014 Rise Set
Actual Time 6:42 AM PDT 6:34 PM PDT
Civil Twilight 6:17 AM PDT 6:59 PM PDT
Nautical Twilight 5:48 AM PDT 7:28 PM PDT
Astronomical Twilight 5:19 AM PDT 7:57 PM PDT
Moon 12:43 PM PDT 11:20 PM PDT
Length of Visible Light 12h 41m
Length of Day
11h 51m
Tomorrow will be 2m 6s shorter.
Waxing Crescent, 37% of the Moon is Illuminated
Today
Waxing Crescent
Oct 1
First Quarter
Oct 8
Full
Oct 15
Last Quarter
Oct 23
New

Today's Extremes

State Highs State Lows

Community

WunderPhotos

Upload Photos

1,757,671 photos uploaded!

Nearby

Air Quality

  Air Quality AQ Index Pollutant
Yesterday Good
OZONE
Yesterday Good
PM2.5
Current Good
PM2.5
Current Good
OZONE
Tuesday Moderate
OZONE
Tuesday Good
PM10
Tuesday Good
CO
Tuesday Good
NO2

Snow Depth

Station Depth Elevation
Echo Peak 1 in 7800 ft
Spratt Creek 1 in 6200 ft
Ebbetts Pass 0 in 8700 ft
Summit Meadow 2 in 9122 ft
Truckee #2 0 in 6400 ft

Earthquake Activity

City Distance Mag. Time & Date
No recent earthquake activity has been reported nearby.
Minimum magnitude displayed is 2.5.

Coastal Water Temperatures

Place Temperature
No Stations Reporting

Nearby Weather Stations